Time;durP1;ratioP1;P1;durP2;ratioP2;P2;SDS_P1;SDS_P2;PMS_P1;PMS_P2;Temp;Humidity;BMP_temperature;BMP_pressure;BME280_temperature;BME280_humidity;BME280_pressure;Samples;Min_cycle;Max_cycle;Signal;HPM_P1;HPM_P2
2022/06/27 00:00:11;;;;;;;2.20;1.00;;;13.90;60.40;;;;;;5055034;28;20267;-77
2022/06/27 00:02:39;;;;;;;2.57;0.90;;;14.00;60.30;;;;;;5056181;28;20682;-77
2022/06/27 00:05:07;;;;;;;2.17;0.90;;;14.10;60.30;;;;;;5066052;28;20184;-75
2022/06/27 00:07:35;;;;;;;1.40;1.20;;;14.20;60.20;;;;;;5053661;28;20176;-75
2022/06/27 00:10:02;;;;;;;7.23;1.10;;;14.10;59.70;;;;;;5055601;28;20829;-77
2022/06/27 00:12:30;;;;;;;4.53;1.10;;;14.20;60.00;;;;;;5054344;28;20597;-76
2022/06/27 00:14:58;;;;;;;1.20;0.90;;;14.20;60.20;;;;;;5054542;28;20184;-79
2022/06/27 00:17:27;;;;;;;4.70;1.20;;;14.30;60.00;;;;;;5063796;28;20309;-76
2022/06/27 00:19:55;;;;;;;2.07;1.00;;;14.40;59.80;;;;;;5063035;28;20488;-76
2022/06/27 00:22:22;;;;;;;1.70;1.10;;;14.50;59.40;;;;;;5063868;28;20184;-75
2022/06/27 00:24:50;;;;;;;4.50;1.37;;;14.60;59.20;;;;;;5067978;28;20179;-73
2022/06/27 00:27:18;;;;;;;1.97;1.20;;;14.60;59.10;;;;;;5066773;28;20299;-77
2022/06/27 00:29:46;;;;;;;6.13;1.27;;;14.80;58.90;;;;;;5052695;28;20182;-79
2022/06/27 00:32:13;;;;;;;7.37;1.47;;;14.70;57.80;;;;;;5053914;28;20262;-76
2022/06/27 00:34:41;;;;;;;6.63;1.40;;;14.70;58.30;;;;;;5061677;28;20259;-75
2022/06/27 00:37:08;;;;;;;8.00;1.20;;;14.80;57.80;;;;;;5065198;28;20203;-78
2022/06/27 00:39:35;;;;;;;4.77;1.30;;;15.00;57.60;;;;;;5063009;28;20183;-76
2022/06/27 00:42:03;;;;;;;10.03;1.40;;;15.20;57.60;;;;;;5070628;28;20326;-75
2022/06/27 00:44:42;;;;;;;4.27;1.30;;;15.20;57.60;;;;;;5054085;28;20191;-74
2022/06/27 00:47:12;;;;;;;10.03;1.50;;;15.30;57.50;;;;;;5054426;28;20192;-75
2022/06/27 00:49:40;;;;;;;5.07;1.53;;;15.20;57.30;;;;;;5054821;28;20357;-78
2022/06/27 00:52:10;;;;;;;2.27;1.17;;;15.20;57.30;;;;;;5067449;28;20187;-76
2022/06/27 00:54:40;;;;;;;8.37;1.97;;;15.20;57.30;;;;;;5060297;28;20244;-74
2022/06/27 00:57:08;;;;;;;8.13;1.87;;;15.50;56.80;;;;;;5064350;28;20239;-73
2022/06/27 00:59:36;;;;;;;2.17;1.13;;;15.60;56.40;;;;;;5074742;28;20189;-75
2022/06/27 01:02:05;;;;;;;5.40;1.40;;;15.40;56.50;;;;;;5072059;28;20186;-77
2022/06/27 01:04:34;;;;;;;4.43;1.87;;;15.40;57.30;;;;;;5073091;28;20266;-71
2022/06/27 01:07:02;;;;;;;4.50;1.60;;;15.50;57.60;;;;;;5071236;28;20637;-72
2022/06/27 01:09:29;;;;;;;7.53;1.90;;;15.50;57.70;;;;;;5064501;28;20185;-76
2022/06/27 01:11:57;;;;;;;4.93;1.50;;;15.70;57.00;;;;;;5070401;28;20282;-75
2022/06/27 01:14:24;;;;;;;7.77;1.57;;;15.80;56.10;;;;;;5072937;28;20536;-72
2022/06/27 01:16:52;;;;;;;5.23;1.70;;;15.70;55.40;;;;;;5062367;28;20700;-75
2022/06/27 01:19:19;;;;;;;3.90;1.70;;;16.00;54.40;;;;;;5052633;28;20180;-73
2022/06/27 01:21:53;;;;;;;3.37;1.37;;;15.80;54.60;;;;;;5052754;28;20220;-74
2022/06/27 01:24:22;;;;;;;7.60;2.23;;;15.80;55.10;;;;;;5066397;28;20181;-73
2022/06/27 01:26:50;;;;;;;5.70;1.57;;;15.80;54.80;;;;;;5068768;28;20223;-76
2022/06/27 01:29:20;;;;;;;7.40;1.90;;;15.70;54.90;;;;;;5069552;28;20201;-76
2022/06/27 01:31:47;;;;;;;5.20;1.40;;;15.80;54.30;;;;;;5069877;28;20258;-76
2022/06/27 01:34:16;;;;;;;8.50;2.20;;;16.00;54.00;;;;;;5066843;28;20205;-76
2022/06/27 01:36:44;;;;;;;5.93;1.73;;;16.20;53.50;;;;;;5073014;28;20213;-75
2022/06/27 01:39:14;;;;;;;3.13;1.43;;;16.30;53.20;;;;;;5062279;28;20179;-73
2022/06/27 01:41:44;;;;;;;4.60;1.57;;;16.40;52.70;;;;;;5053895;28;20690;-77
2022/06/27 01:44:13;;;;;;;8.27;1.80;;;16.20;53.20;;;;;;5053230;28;20199;-77
2022/06/27 01:46:43;;;;;;;3.33;1.80;;;15.80;53.90;;;;;;5061529;28;20192;-78
2022/06/27 01:49:12;;;;;;;8.97;2.07;;;15.60;54.90;;;;;;5064573;28;20217;-74
2022/06/27 01:51:41;;;;;;;11.13;2.13;;;15.50;55.80;;;;;;5055761;28;20187;-77
2022/06/27 01:54:10;;;;;;;7.53;2.33;;;15.60;55.70;;;;;;5053133;28;20188;-76
2022/06/27 01:56:39;;;;;;;8.80;2.07;;;15.40;55.80;;;;;;5053210;28;20237;-76
2022/06/27 01:59:07;;;;;;;7.00;2.10;;;15.70;55.40;;;;;;5053249;28;20176;-75
2022/06/27 02:01:36;;;;;;;16.27;2.40;;;16.00;54.30;;;;;;5053234;28;20182;-75
2022/06/27 02:04:05;;;;;;;11.27;2.50;;;16.30;52.30;;;;;;5053285;28;20182;-73
2022/06/27 02:06:33;;;;;;;7.53;2.73;;;16.40;51.00;;;;;;5053170;28;20184;-76
2022/06/27 02:09:04;;;;;;;14.17;2.53;;;16.30;52.00;;;;;;5053036;28;20234;-74
2022/06/27 02:11:31;;;;;;;10.60;2.27;;;16.00;53.50;;;;;;5052925;28;20187;-74
2022/06/27 02:13:59;;;;;;;8.07;2.30;;;15.70;55.30;;;;;;5053077;28;20184;-77
2022/06/27 02:16:27;;;;;;;5.17;1.80;;;15.50;56.30;;;;;;5051368;28;20211;-76
2022/06/27 02:18:55;;;;;;;4.77;2.23;;;15.30;56.80;;;;;;5053096;28;20214;-78
2022/06/27 02:21:27;;;;;;;11.37;2.20;;;15.40;56.90;;;;;;5054099;28;20613;-77
2022/06/27 02:23:55;;;;;;;7.57;2.30;;;15.70;55.30;;;;;;5054779;28;20254;-76
2022/06/27 02:26:26;;;;;;;6.77;2.20;;;15.80;55.50;;;;;;5058971;28;20231;-74
2022/06/27 02:28:55;;;;;;;6.20;2.17;;;15.70;55.50;;;;;;5060699;28;20275;-71
2022/06/27 02:31:23;;;;;;;10.83;2.80;;;15.30;56.90;;;;;;5052217;28;20290;-75
2022/06/27 02:33:53;;;;;;;6.87;2.43;;;15.40;57.60;;;;;;5052758;28;20257;-72
2022/06/27 02:36:31;;;;;;;7.70;2.73;;;15.30;57.70;;;;;;5052530;28;20219;-76
2022/06/27 02:39:00;;;;;;;7.20;2.30;;;15.20;58.00;;;;;;5052495;28;20578;-73
2022/06/27 02:41:32;;;;;;;8.27;2.50;;;14.90;58.60;;;;;;5052291;28;20207;-72
2022/06/27 02:44:06;;;;;;;10.73;2.40;;;14.80;58.50;;;;;;5052608;28;20174;-73
2022/06/27 02:46:34;;;;;;;10.00;2.67;;;14.80;58.60;;;;;;5051914;28;20176;-71
2022/06/27 02:49:03;;;;;;;9.67;2.83;;;14.80;58.50;;;;;;5052303;28;20171;-77
2022/06/27 02:51:46;;;;;;;13.10;2.80;;;14.80;58.50;;;;;;5054863;28;20320;-76
2022/06/27 02:54:21;;;;;;;7.60;2.67;;;14.90;58.60;;;;;;5067348;28;20672;-76
2022/06/27 02:56:57;;;;;;;8.93;2.67;;;15.10;57.80;;;;;;5053582;28;20207;-73
2022/06/27 02:59:29;;;;;;;7.23;1.90;;;15.10;56.10;;;;;;5051789;28;20172;-74
2022/06/27 03:01:58;;;;;;;7.27;2.50;;;15.10;53.80;;;;;;5051870;28;20191;-75
2022/06/27 03:04:25;;;;;;;8.93;2.17;;;15.10;53.90;;;;;;5051728;28;20638;-76
2022/06/27 03:06:53;;;;;;;7.83;2.20;;;15.50;53.00;;;;;;5051721;28;20192;-73
2022/06/27 03:09:21;;;;;;;3.30;1.60;;;16.00;48.80;;;;;;5051809;28;20198;-73
2022/06/27 03:11:48;;;;;;;4.93;1.80;;;15.70;48.50;;;;;;5051760;28;20184;-72
2022/06/27 03:14:16;;;;;;;6.43;1.73;;;15.30;49.70;;;;;;5051701;28;20188;-74
2022/06/27 03:16:44;;;;;;;8.50;1.90;;;15.30;48.50;;;;;;5051420;28;20670;-72
2022/06/27 03:19:12;;;;;;;4.03;1.50;;;15.70;47.00;;;;;;5051582;28;20176;-75
2022/06/27 03:21:39;;;;;;;4.43;1.90;;;15.40;47.00;;;;;;5055533;28;20186;-78
2022/06/27 03:24:07;;;;;;;6.80;1.83;;;15.50;46.70;;;;;;5063582;28;20178;-75
2022/06/27 03:26:34;;;;;;;6.03;1.63;;;16.00;44.80;;;;;;5056663;28;20301;-75
2022/06/27 03:29:03;;;;;;;9.30;1.73;;;16.00;45.70;;;;;;5051692;28;20662;-74
2022/06/27 03:31:31;;;;;;;7.97;2.10;;;16.10;46.10;;;;;;5056036;28;20531;-75
2022/06/27 03:33:58;;;;;;;2.73;1.60;;;16.20;45.90;;;;;;5053449;28;20180;-79
2022/06/27 03:36:25;;;;;;;2.13;1.10;;;16.10;42.80;;;;;;5063986;28;20332;-81
2022/06/27 03:38:53;;;;;;;3.73;1.60;;;16.10;42.50;;;;;;5069465;28;20190;-75
2022/06/27 03:41:21;;;;;;;2.10;1.20;;;16.40;42.30;;;;;;5074744;28;20189;-75
2022/06/27 03:43:49;;;;;;;4.57;1.67;;;16.40;42.50;;;;;;5062604;28;20241;-79
2022/06/27 03:46:16;;;;;;;5.10;1.73;;;16.30;43.70;;;;;;5072529;28;20373;-73
2022/06/27 03:51:29;;;;;;;3.87;1.23;;;16.10;45.00;;;;;;5062556;28;20249;-72
2022/06/27 03:53:56;;;;;;;4.50;1.60;;;15.70;45.30;;;;;;5061793;28;20334;-70
2022/06/27 03:56:24;;;;;;;6.07;1.60;;;15.50;46.10;;;;;;5064164;28;20246;-75
2022/06/27 03:58:51;;;;;;;5.97;1.87;;;15.30;45.60;;;;;;5071609;28;20578;-75
2022/06/27 04:01:19;;;;;;;3.93;1.63;;;15.20;47.20;;;;;;5060982;28;20188;-76
2022/06/27 04:03:46;;;;;;;6.17;1.50;;;15.10;46.60;;;;;;5066908;28;20181;-76
2022/06/27 04:06:14;;;;;;;9.97;1.90;;;15.10;46.90;;;;;;5068534;28;20245;-78
2022/06/27 04:08:43;;;;;;;6.30;1.83;;;15.20;48.00;;;;;;5057255;28;20217;-73
2022/06/27 04:11:10;;;;;;;7.37;1.93;;;15.30;47.70;;;;;;5059099;28;20175;-74
2022/06/27 04:13:37;;;;;;;5.30;1.50;;;15.30;47.40;;;;;;5055229;28;20176;-72
2022/06/27 04:16:05;;;;;;;2.37;1.23;;;15.30;45.10;;;;;;5079743;28;20206;-74
2022/06/27 04:18:33;;;;;;;8.40;2.13;;;15.30;44.10;;;;;;5072614;28;20175;-77
2022/06/27 04:21:01;;;;;;;3.13;1.30;;;15.30;45.40;;;;;;5072827;28;20182;-75
2022/06/27 04:23:28;;;;;;;4.43;1.73;;;15.10;46.40;;;;;;5057054;28;20180;-76
2022/06/27 04:25:56;;;;;;;5.30;1.90;;;14.90;47.50;;;;;;5060933;28;20315;-75
2022/06/27 04:28:23;;;;;;;6.67;2.10;;;14.80;49.10;;;;;;5059241;28;20184;-79
2022/06/27 04:30:52;;;;;;;8.43;2.07;;;14.80;49.40;;;;;;5064623;28;20275;-77
2022/06/27 04:33:19;;;;;;;5.00;1.90;;;14.80;49.60;;;;;;5053272;28;20258;-76
2022/06/27 04:35:47;;;;;;;4.40;1.60;;;14.80;49.60;;;;;;5053289;28;20197;-75
2022/06/27 04:38:17;;;;;;;6.73;2.50;;;14.70;50.20;;;;;;5057647;28;20180;-76
2022/06/27 04:40:45;;;;;;;3.90;2.30;;;14.80;50.50;;;;;;5053194;28;20176;-77
2022/06/27 04:43:12;;;;;;;7.13;1.70;;;14.80;50.90;;;;;;5053307;28;20180;-74
2022/06/27 04:45:40;;;;;;;5.60;2.00;;;14.80;50.80;;;;;;5055149;28;20221;-77
2022/06/27 04:48:10;;;;;;;3.63;1.73;;;14.70;49.50;;;;;;5069855;28;20185;-72
2022/06/27 04:50:38;;;;;;;6.37;2.10;;;14.80;49.50;;;;;;5060718;28;20187;-76
2022/06/27 04:53:06;;;;;;;8.97;2.13;;;14.80;49.20;;;;;;5063751;28;20183;-76
2022/06/27 04:55:33;;;;;;;4.17;2.03;;;15.00;48.80;;;;;;5066681;28;20249;-73
2022/06/27 04:58:01;;;;;;;7.23;2.20;;;15.80;46.30;;;;;;5070154;28;20588;-77
2022/06/27 05:00:28;;;;;;;5.63;2.20;;;15.40;47.00;;;;;;5065872;28;20188;-76
2022/06/27 05:02:56;;;;;;;7.70;1.90;;;15.00;48.00;;;;;;5068267;28;20175;-75
2022/06/27 05:05:23;;;;;;;9.73;1.80;;;14.80;48.10;;;;;;5061864;28;20184;-75
2022/06/27 05:07:51;;;;;;;6.33;2.43;;;14.50;49.30;;;;;;5057427;28;20226;-73
2022/06/27 05:10:19;;;;;;;8.47;2.57;;;14.40;49.80;;;;;;5068287;28;20243;-76
2022/06/27 05:12:46;;;;;;;5.67;2.10;;;14.30;50.10;;;;;;5063746;28;20178;-76
2022/06/27 05:15:14;;;;;;;5.10;1.67;;;14.30;50.40;;;;;;5067588;28;20214;-76
2022/06/27 05:17:43;;;;;;;5.67;2.47;;;14.30;50.50;;;;;;5067076;28;20596;-79
2022/06/27 05:20:12;;;;;;;6.83;2.43;;;14.20;50.50;;;;;;5065797;28;20858;-75
2022/06/27 05:22:40;;;;;;;6.17;2.30;;;14.30;50.50;;;;;;5062810;28;20179;-74
2022/06/27 05:25:10;;;;;;;10.57;2.53;;;14.30;50.00;;;;;;5063555;28;20183;-76
2022/06/27 05:27:38;;;;;;;7.10;2.00;;;14.40;49.90;;;;;;4966506;28;2924447;-77
2022/06/27 05:30:07;;;;;;;9.50;1.70;;;14.30;50.50;;;;;;5071685;28;20538;-78
2022/06/27 05:32:35;;;;;;;8.23;2.30;;;14.30;50.90;;;;;;5068749;28;20187;-76
2022/06/27 05:35:03;;;;;;;12.37;2.33;;;14.30;51.30;;;;;;5063872;28;20176;-77
2022/06/27 05:37:31;;;;;;;14.67;2.87;;;14.20;51.20;;;;;;5071344;28;20595;-80
2022/06/27 05:39:58;;;;;;;5.27;1.87;;;14.20;51.80;;;;;;5072204;28;20200;-74
2022/06/27 05:42:26;;;;;;;8.73;2.10;;;14.30;51.50;;;;;;5072875;28;20187;-75
2022/06/27 05:44:54;;;;;;;6.97;1.90;;;14.30;51.60;;;;;;5065642;28;20257;-76
2022/06/27 05:47:22;;;;;;;9.43;2.10;;;14.20;50.00;;;;;;5066489;28;20187;-76
2022/06/27 05:49:49;;;;;;;10.00;2.10;;;14.20;49.40;;;;;;5072643;28;20235;-75
2022/06/27 05:52:16;;;;;;;5.47;2.10;;;14.20;50.00;;;;;;5059498;28;20195;-75
2022/06/27 05:54:44;;;;;;;9.17;1.67;;;14.20;50.50;;;;;;5052280;28;20208;-74
2022/06/27 05:57:12;;;;;;;12.60;2.53;;;14.10;50.60;;;;;;5058953;28;20280;-75
2022/06/27 05:59:40;;;;;;;11.17;2.13;;;14.00;51.00;;;;;;5072843;28;20268;-73
2022/06/27 06:02:08;;;;;;;11.50;2.20;;;13.90;50.30;;;;;;5067285;28;20190;-74
2022/06/27 06:04:35;;;;;;;5.40;2.00;;;13.90;50.30;;;;;;5070645;28;20183;-78
2022/06/27 06:07:03;;;;;;;6.00;2.03;;;14.80;46.10;;;;;;5070990;28;20645;-74
2022/06/27 06:09:33;;;;;;;4.43;1.80;;;15.10;44.90;;;;;;5069969;28;20183;-72
2022/06/27 06:12:01;;;;;;;6.87;1.60;;;14.90;45.10;;;;;;5065869;28;20185;-75
2022/06/27 06:14:28;;;;;;;6.43;2.20;;;14.80;45.50;;;;;;5062125;28;20211;-77
2022/06/27 06:16:56;;;;;;;7.10;1.80;;;14.70;46.50;;;;;;5066947;28;20242;-76
2022/06/27 06:19:24;;;;;;;7.70;1.93;;;14.70;46.90;;;;;;5071771;28;20258;-75
2022/06/27 06:21:51;;;;;;;7.30;1.70;;;14.50;47.90;;;;;;5069061;28;20710;-74
2022/06/27 06:24:19;;;;;;;11.07;2.10;;;14.30;48.80;;;;;;5071530;28;20181;-72
2022/06/27 06:26:47;;;;;;;7.63;1.87;;;14.00;49.70;;;;;;5071771;28;20223;-76
2022/06/27 06:29:17;;;;;;;8.03;1.80;;;13.80;49.90;;;;;;5071001;28;20244;-75
2022/06/27 06:31:45;;;;;;;7.43;1.70;;;13.80;49.90;;;;;;5069770;28;20270;-79
2022/06/27 06:34:14;;;;;;;10.63;1.97;;;13.70;49.90;;;;;;5069549;28;20172;-74
2022/06/27 06:36:43;;;;;;;6.30;2.30;;;13.70;50.30;;;;;;5070086;28;20224;-74
2022/06/27 06:39:12;;;;;;;10.27;2.20;;;13.70;50.60;;;;;;5051532;28;20585;-76
2022/06/27 06:41:40;;;;;;;4.67;1.60;;;13.60;50.80;;;;;;5064309;28;20193;-73
2022/06/27 06:44:09;;;;;;;7.80;2.17;;;13.50;50.40;;;;;;5069778;28;20208;-76
2022/06/27 06:46:36;;;;;;;11.87;2.10;;;13.40;50.70;;;;;;5067298;28;20196;-77
2022/06/27 06:49:06;;;;;;;5.03;1.60;;;13.30;51.10;;;;;;5064282;28;20213;-79
2022/06/27 06:51:36;;;;;;;8.17;2.20;;;13.30;51.00;;;;;;5072231;28;20191;-76
2022/06/27 06:54:15;;;;;;;6.80;1.90;;;13.20;50.70;;;;;;5069067;28;20684;-77
2022/06/27 06:56:46;;;;;;;6.83;1.80;;;13.20;51.10;;;;;;5064585;28;20306;-75
2022/06/27 06:59:14;;;;;;;7.57;1.97;;;13.10;50.80;;;;;;5058962;28;20229;-75
2022/06/27 07:01:43;;;;;;;9.27;2.40;;;13.00;50.50;;;;;;5056184;28;20195;-76
2022/06/27 07:04:11;;;;;;;4.27;1.57;;;13.00;49.90;;;;;;5068644;28;20179;-73
2022/06/27 07:06:42;;;;;;;5.60;1.83;;;12.90;49.80;;;;;;5064462;28;20184;-76
2022/06/27 07:09:10;;;;;;;8.37;1.67;;;13.00;48.90;;;;;;5067151;28;20190;-76
2022/06/27 07:11:39;;;;;;;7.37;1.90;;;13.00;48.30;;;;;;5069999;28;20187;-73
2022/06/27 07:14:07;;;;;;;7.17;2.03;;;13.00;48.70;;;;;;5067890;28;20194;-77
2022/06/27 07:16:35;;;;;;;7.20;2.27;;;12.90;48.50;;;;;;5066878;28;20284;-73
2022/06/27 07:19:07;;;;;;;4.77;1.93;;;12.90;48.20;;;;;;5051683;28;20175;-75
2022/06/27 07:21:35;;;;;;;10.43;2.10;;;12.80;47.60;;;;;;5057769;28;20278;-75
2022/06/27 07:24:05;;;;;;;4.83;2.40;;;12.80;47.10;;;;;;5057918;28;20183;-76
2022/06/27 07:26:33;;;;;;;3.77;1.93;;;12.80;47.00;;;;;;5058555;28;20242;-76
2022/06/27 07:29:05;;;;;;;7.03;2.00;;;12.80;47.20;;;;;;5051590;28;20642;-78
2022/06/27 07:31:33;;;;;;;7.83;1.80;;;12.70;47.20;;;;;;5069539;28;20178;-72
2022/06/27 07:34:02;;;;;;;6.23;1.87;;;12.70;46.90;;;;;;5073638;28;20181;-74
2022/06/27 07:36:32;;;;;;;7.67;1.80;;;12.60;47.20;;;;;;5060081;28;20204;-76
2022/06/27 07:39:00;;;;;;;7.70;1.80;;;12.50;47.50;;;;;;5051772;28;20202;-77
2022/06/27 07:41:30;;;;;;;4.90;1.80;;;12.50;46.90;;;;;;5052032;28;20238;-73
2022/06/27 07:43:57;;;;;;;4.00;1.67;;;12.60;47.00;;;;;;5057796;28;20256;-72
2022/06/27 07:46:25;;;;;;;5.30;1.70;;;12.60;46.80;;;;;;5062098;28;20218;-77
2022/06/27 07:48:53;;;;;;;4.50;1.70;;;12.50;46.30;;;;;;5052123;28;20184;-82
2022/06/27 07:51:21;;;;;;;5.03;1.63;;;12.60;45.80;;;;;;5060701;28;20191;-78
2022/06/27 07:53:51;;;;;;;4.27;1.60;;;12.50;46.10;;;;;;5058198;28;20259;-78
2022/06/27 07:56:22;;;;;;;5.03;1.70;;;12.50;46.20;;;;;;5066330;28;20581;-81
2022/06/27 07:58:49;;;;;;;4.43;1.60;;;12.50;46.30;;;;;;5063257;28;20172;-77
2022/06/27 08:01:19;;;;;;;8.60;1.83;;;12.30;46.70;;;;;;5061384;28;20189;-77
2022/06/27 08:03:50;;;;;;;4.67;1.60;;;12.30;46.60;;;;;;5054657;28;20201;-73
2022/06/27 08:06:21;;;;;;;3.57;1.37;;;12.30;46.50;;;;;;5057326;28;20187;-76
2022/06/27 08:09:00;;;;;;;1.70;1.43;;;12.30;46.70;;;;;;5053757;28;20187;-80
2022/06/27 08:11:31;;;;;;;4.77;1.60;;;12.30;46.60;;;;;;5051801;28;20198;-77
2022/06/27 08:14:03;;;;;;;4.10;1.50;;;12.30;46.80;;;;;;5076725;28;20277;-75
2022/06/27 08:16:31;;;;;;;2.33;1.50;;;12.30;46.60;;;;;;5067734;28;20302;-79
2022/06/27 08:19:00;;;;;;;3.93;1.90;;;12.30;46.80;;;;;;5051857;28;20176;-79
2022/06/27 08:21:30;;;;;;;5.00;1.70;;;12.30;47.10;;;;;;5058707;28;20669;-78
2022/06/27 08:23:59;;;;;;;7.60;1.97;;;12.20;47.20;;;;;;5055560;28;20180;-77
2022/06/27 08:26:28;;;;;;;2.70;1.80;;;12.30;47.30;;;;;;5067446;28;20235;-78
2022/06/27 08:28:58;;;;;;;3.40;1.90;;;12.20;48.10;;;;;;5072509;28;20180;-78
2022/06/27 08:31:27;;;;;;;6.83;2.10;;;12.30;48.60;;;;;;5055447;28;20188;-74
2022/06/27 08:34:04;;;;;;;6.53;1.70;;;12.30;50.50;;;;;;5054897;28;20190;-79
2022/06/27 08:36:33;;;;;;;8.80;2.37;;;12.20;49.60;;;;;;5063918;28;20227;-76
2022/06/27 08:39:03;;;;;;;6.17;2.10;;;12.10;50.80;;;;;;5054191;28;20180;-77
2022/06/27 08:41:32;;;;;;;4.23;1.80;;;11.90;51.20;;;;;;5063166;28;20191;-75
2022/06/27 08:44:00;;;;;;;4.97;1.90;;;11.80;52.10;;;;;;5064771;28;20646;-77
2022/06/27 08:46:29;;;;;;;5.23;1.77;;;11.70;51.80;;;;;;5059943;28;20184;-76
2022/06/27 08:48:57;;;;;;;6.53;2.30;;;11.70;51.90;;;;;;5058339;28;20172;-80
2022/06/27 08:51:26;;;;;;;5.73;2.27;;;11.50;51.70;;;;;;5086568;28;20360;-75
2022/06/27 08:53:54;;;;;;;3.53;1.87;;;11.50;51.10;;;;;;5062401;28;20661;-75
2022/06/27 08:56:24;;;;;;;5.10;2.20;;;11.40;51.80;;;;;;5055588;28;20199;-78
2022/06/27 08:58:52;;;;;;;2.77;2.00;;;11.40;51.20;;;;;;5065538;28;20187;-80
2022/06/27 09:01:23;;;;;;;4.93;2.03;;;11.40;51.00;;;;;;5067856;28;20187;-75
2022/06/27 09:03:58;;;;;;;7.00;2.17;;;11.40;50.70;;;;;;5059871;28;20182;-76
2022/06/27 09:06:27;;;;;;;7.90;2.20;;;11.30;51.20;;;;;;5073807;28;20522;-76
2022/06/27 09:09:08;;;;;;;5.43;2.17;;;11.30;51.30;;;;;;5054195;28;20191;-77
2022/06/27 09:11:41;;;;;;;4.73;2.47;;;11.30;51.40;;;;;;5054087;28;20191;-77
2022/06/27 09:14:36;;;;;;;5.63;2.37;;;11.20;51.60;;;;;;5059694;28;20664;-84
2022/06/27 09:17:14;;;;;;;4.40;2.63;;;11.20;51.50;;;;;;5073301;28;20234;-77
2022/06/27 09:19:58;;;;;;;4.70;2.43;;;11.20;51.90;;;;;;5074138;28;20177;-76
2022/06/27 09:22:32;;;;;;;3.37;2.47;;;11.10;51.70;;;;;;5066490;28;20183;-77
2022/06/27 09:25:04;;;;;;;6.87;2.70;;;11.10;51.50;;;;;;5053716;28;20197;-77
2022/06/27 09:27:44;;;;;;;6.80;2.27;;;11.20;51.50;;;;;;5053874;28;20230;-77
2022/06/27 09:30:21;;;;;;;4.23;1.80;;;11.20;51.30;;;;;;5053613;28;20187;-76
2022/06/27 09:32:51;;;;;;;6.17;2.27;;;11.30;51.20;;;;;;5060057;28;20577;-71
2022/06/27 09:35:36;;;;;;;5.70;2.30;;;11.40;51.00;;;;;;5059450;28;20183;-74
2022/06/27 09:38:08;;;;;;;4.70;1.80;;;11.50;52.10;;;;;;5070091;28;20244;-71
2022/06/27 09:40:40;;;;;;;3.77;1.90;;;11.40;55.40;;;;;;5053684;28;20263;-78
2022/06/27 09:43:22;;;;;;;4.47;1.90;;;11.30;57.50;;;;;;5058355;28;20199;-79
2022/06/27 09:45:51;;;;;;;12.33;2.57;;;11.30;56.90;;;;;;5064316;28;20237;-72
2022/06/27 09:48:19;;;;;;;6.00;1.93;;;11.30;56.30;;;;;;5053065;28;20183;-78
2022/06/27 09:50:48;;;;;;;4.80;2.53;;;11.30;56.10;;;;;;5053988;28;20649;-75
2022/06/27 09:53:18;;;;;;;10.37;1.90;;;11.30;54.40;;;;;;5058507;28;20548;-74
2022/06/27 09:55:48;;;;;;;5.47;1.73;;;11.30;54.80;;;;;;5053097;28;20225;-82
2022/06/27 09:58:16;;;;;;;5.33;1.90;;;11.40;55.40;;;;;;5070439;28;20183;-76
2022/06/27 10:00:46;;;;;;;11.30;2.20;;;11.40;54.40;;;;;;5064210;28;20224;-76
2022/06/27 10:03:14;;;;;;;8.17;2.00;;;11.50;54.50;;;;;;5061956;28;20200;-76
2022/06/27 10:05:43;;;;;;;4.00;1.70;;;11.50;54.20;;;;;;5057292;28;20238;-77
2022/06/27 10:08:11;;;;;;;5.07;1.97;;;11.50;55.10;;;;;;5068558;28;20547;-78
2022/06/27 10:11:15;;;;;;;7.67;1.73;;;11.40;57.20;;;;;;5067979;28;20262;-77
2022/06/27 10:13:46;;;;;;;5.73;2.03;;;11.20;64.10;;;;;;5066123;28;20244;-77
2022/06/27 10:16:16;;;;;;;8.20;1.90;;;11.00;67.50;;;;;;5080158;28;20691;-75
2022/06/27 10:19:00;;;;;;;4.60;2.27;;;10.80;69.00;;;;;;5061904;28;20237;-79
2022/06/27 10:21:33;;;;;;;8.10;2.30;;;10.70;68.80;;;;;;5061511;28;20190;-76
2022/06/27 10:24:19;;;;;;;8.67;2.33;;;10.70;67.70;;;;;;5065947;28;20210;-80
2022/06/27 10:26:49;;;;;;;5.23;1.90;;;10.70;67.00;;;;;;5052860;28;20724;-75
2022/06/27 10:29:29;;;;;;;5.10;2.00;;;10.80;67.80;;;;;;5069276;28;20587;-76
2022/06/27 10:31:57;;;;;;;7.30;2.30;;;10.80;68.30;;;;;;5065014;28;20201;-78
2022/06/27 10:34:40;;;;;;;13.70;2.50;;;11.00;68.80;;;;;;5063669;28;20178;-76
2022/06/27 10:37:25;;;;;;;6.43;2.17;;;11.00;69.00;;;;;;5053010;28;20218;-79
2022/06/27 10:40:11;;;;;;;8.93;2.23;;;11.10;67.80;;;;;;5059393;28;20274;-78
2022/06/27 10:42:57;;;;;;;6.73;2.20;;;11.20;66.70;;;;;;5057999;28;20182;-79
2022/06/27 10:45:27;;;;;;;5.67;2.30;;;11.10;66.50;;;;;;5059206;28;20277;-76
2022/06/27 10:48:01;;;;;;;6.40;1.83;;;11.10;66.30;;;;;;5062672;28;20181;-76
2022/06/27 10:50:39;;;;;;;8.27;2.27;;;11.10;66.90;;;;;;5053396;28;20182;-76
2022/06/27 10:53:26;;;;;;;7.67;2.30;;;11.10;66.40;;;;;;5068706;28;20233;-75
2022/06/27 10:55:54;;;;;;;5.40;2.20;;;11.10;66.20;;;;;;5052211;28;20202;-78
2022/06/27 10:58:25;;;;;;;9.13;2.27;;;11.00;66.50;;;;;;5065674;28;20193;-76
2022/06/27 11:00:52;;;;;;;6.40;2.10;;;10.90;66.90;;;;;;5060759;28;20273;-77
2022/06/27 11:03:31;;;;;;;6.77;2.23;;;10.90;67.40;;;;;;5065243;28;20187;-77
2022/06/27 11:06:06;;;;;;;5.53;2.10;;;10.90;67.70;;;;;;5074847;28;20926;-80
2022/06/27 11:08:36;;;;;;;6.53;2.13;;;10.90;68.40;;;;;;5066313;28;20186;-76
2022/06/27 11:11:05;;;;;;;5.70;2.10;;;10.80;69.30;;;;;;5078899;28;20174;-77
2022/06/27 11:13:40;;;;;;;6.10;2.60;;;10.80;69.70;;;;;;5063390;28;20193;-77
2022/06/27 11:16:28;;;;;;;5.97;2.20;;;10.80;70.30;;;;;;5065470;28;20648;-78
2022/06/27 11:18:59;;;;;;;7.57;2.20;;;10.80;70.50;;;;;;5070937;28;20199;-76
2022/06/27 11:21:29;;;;;;;6.67;2.30;;;10.80;70.30;;;;;;5060472;28;20231;-76
2022/06/27 11:24:11;;;;;;;6.87;2.17;;;10.70;68.70;;;;;;5065974;28;20200;-75
2022/06/27 11:26:49;;;;;;;7.40;2.50;;;10.70;67.60;;;;;;5056439;28;20578;-79
2022/06/27 11:32:12;;;;;;;7.10;2.20;;;10.50;66.00;;;;;;5065001;28;20194;-76
2022/06/27 11:34:44;;;;;;;8.50;2.50;;;10.40;66.80;;;;;;5065040;28;20181;-76
2022/06/27 11:37:17;;;;;;;7.43;2.60;;;10.30;66.40;;;;;;5067802;28;20567;-77
2022/06/27 11:39:59;;;;;;;7.03;2.73;;;10.30;66.00;;;;;;5082327;28;20174;-80
2022/06/27 11:42:40;;;;;;;7.17;2.63;;;10.30;66.60;;;;;;5055323;28;20186;-80
2022/06/27 11:45:09;;;;;;;6.00;2.27;;;10.10;64.90;;;;;;5059732;28;20175;-75
2022/06/27 11:47:40;;;;;;;4.87;2.20;;;10.20;66.00;;;;;;5053082;28;20265;-79
2022/06/27 11:50:13;;;;;;;7.83;2.50;;;10.10;65.20;;;;;;5062515;28;20176;-78
2022/06/27 11:52:44;;;;;;;7.13;2.63;;;10.10;66.20;;;;;;5057349;28;20651;-75
2022/06/27 11:55:17;;;;;;;7.10;2.40;;;10.00;66.40;;;;;;5053726;28;20181;-78
2022/06/27 11:57:56;;;;;;;6.83;2.80;;;9.90;67.20;;;;;;5070021;28;20230;-80
2022/06/27 12:00:44;;;;;;;5.57;2.20;;;9.90;67.70;;;;;;5071042;28;20639;-77
2022/06/27 12:03:13;;;;;;;7.53;2.33;;;9.80;66.50;;;;;;5058913;28;20668;-81
2022/06/27 12:05:42;;;;;;;4.93;2.57;;;9.70;67.80;;;;;;5055473;28;20185;-79
2022/06/27 12:08:14;;;;;;;4.43;2.07;;;9.60;68.40;;;;;;5055186;28;20170;-77
2022/06/27 12:13:39;;;;;;;7.07;2.70;;;9.40;71.50;;;;;;5069713;28;20212;-72
2022/06/27 12:16:09;;;;;;;5.53;2.80;;;9.20;73.80;;;;;;5055254;28;20213;-71
2022/06/27 12:18:40;;;;;;;5.40;2.83;;;9.20;76.10;;;;;;5067358;28;20281;-71
2022/06/27 12:21:08;;;;;;;7.80;3.40;;;9.10;76.30;;;;;;5065850;28;20353;-72
2022/06/27 12:23:36;;;;;;;8.27;3.40;;;9.00;77.90;;;;;;5063959;28;20268;-74
2022/06/27 12:26:05;;;;;;;9.20;3.37;;;9.00;79.90;;;;;;5057479;28;20241;-72
2022/06/27 12:28:32;;;;;;;4.60;2.87;;;8.80;79.50;;;;;;5070903;28;20185;-75
2022/06/27 12:31:00;;;;;;;6.27;3.00;;;8.70;80.20;;;;;;5055017;28;20584;-72
2022/06/27 12:33:28;;;;;;;8.50;3.40;;;8.60;79.70;;;;;;5059410;28;20194;-74
2022/06/27 12:35:56;;;;;;;9.03;3.70;;;8.50;79.30;;;;;;5054979;28;20559;-76
2022/06/27 12:38:23;;;;;;;5.57;3.13;;;8.50;79.70;;;;;;5055047;28;20180;-73
2022/06/27 12:41:11;;;;;;;4.30;3.10;;;8.50;78.70;;;;;;5060640;28;20221;-75
2022/06/27 12:43:44;;;;;;;5.30;2.73;;;8.60;79.20;;;;;;5056082;28;20194;-74
2022/06/27 12:46:13;;;;;;;4.60;3.00;;;8.60;78.30;;;;;;5063283;28;20192;-74
2022/06/27 12:48:41;;;;;;;7.03;3.17;;;8.70;79.30;;;;;;5075380;28;20197;-74
2022/06/27 12:51:09;;;;;;;5.70;3.23;;;8.80;80.30;;;;;;5061607;28;20267;-75
2022/06/27 12:53:37;;;;;;;4.97;3.27;;;8.80;80.30;;;;;;5055017;28;20179;-74
2022/06/27 12:56:06;;;;;;;10.50;3.63;;;9.00;81.50;;;;;;5064307;28;20220;-74
2022/06/27 12:58:34;;;;;;;8.27;3.33;;;9.00;83.10;;;;;;5060224;28;20198;-75
2022/06/27 13:01:02;;;;;;;9.50;2.80;;;9.00;83.10;;;;;;5054653;28;20180;-74
2022/06/27 13:03:30;;;;;;;6.23;3.13;;;8.90;80.90;;;;;;5067246;28;20198;-77
2022/06/27 13:05:58;;;;;;;4.60;2.90;;;8.90;78.70;;;;;;5064737;28;20196;-75
2022/06/27 13:08:26;;;;;;;7.70;3.80;;;8.80;76.90;;;;;;5054439;28;20218;-77
2022/06/27 13:10:53;;;;;;;6.77;3.87;;;9.00;78.40;;;;;;5053528;28;20235;-75